Time;durP1;ratioP1;P1;durP2;ratioP2;P2;SDS_P1;SDS_P2;PMS_P1;PMS_P2;Temp;Humidity;BMP_temperature;BMP_pressure;BME280_temperature;BME280_humidity;BME280_pressure;Samples;Min_cycle;Max_cycle;Signal;HPM_P1;HPM_P2
2021/09/30 00:01:34;;;;;;;15.77;1.88;;;;;;;12.43;76.50;102149.63;5073651;28;20041;-36
2021/09/30 00:04:02;;;;;;;7.97;0.80;;;;;;;12.30;76.75;102164.19;5073948;28;20087;-36
2021/09/30 00:06:31;;;;;;;3.05;0.50;;;;;;;12.12;76.40;102161.09;5074198;28;20135;-42
2021/09/30 00:08:58;;;;;;;4.72;0.80;;;;;;;11.99;77.08;102156.88;5073235;28;20043;-39
2021/09/30 00:11:28;;;;;;;4.97;0.70;;;;;;;11.88;78.05;102153.22;5073729;28;20577;-38
2021/09/30 00:14:00;;;;;;;7.22;1.02;;;;;;;11.83;78.57;102160.75;5074008;28;20048;-39
2021/09/30 00:16:49;;;;;;;6.68;1.00;;;;;;;11.79;80.05;102154.84;5073456;28;20105;-40
2021/09/30 00:33:20;;;;;;;8.68;0.90;;;;;;;11.86;79.66;102161.03;5073929;28;20044;-39
2021/09/30 00:36:04;;;;;;;4.10;0.70;;;;;;;11.87;79.18;102159.09;5072838;28;20124;-40
2021/09/30 00:46:51;;;;;;;6.28;1.08;;;;;;;12.00;78.54;102155.75;5072002;28;20048;-41
2021/09/30 00:49:32;;;;;;;5.47;0.82;;;;;;;12.02;78.54;102157.16;5073028;28;20048;-35
2021/09/30 00:52:05;;;;;;;5.95;0.80;;;;;;;12.03;78.31;102166.38;5071518;28;20448;-34
2021/09/30 00:54:49;;;;;;;6.15;1.05;;;;;;;12.06;78.19;102165.84;5073230;28;20052;-31
2021/09/30 01:45:30;;;;;;;8.15;0.95;;;;;;;12.62;75.64;102174.25;5070668;28;20409;-39
2021/09/30 02:20:37;;;;;;;6.93;1.00;;;;;;;12.77;73.95;102189.09;5070500;28;20382;-41
2021/09/30 02:23:50;;;;;;;4.78;0.75;;;;;;;12.76;73.39;102187.44;5071161;28;20567;-34
2021/09/30 02:26:43;;;;;;;10.35;1.30;;;;;;;12.77;73.74;102193.88;5067505;28;20059;-34
2021/09/30 03:00:01;;;;;;;5.90;0.88;;;;;;;12.85;74.86;102204.50;5069709;28;20516;-37
2021/09/30 03:02:39;;;;;;;6.40;0.90;;;;;;;12.86;74.19;102210.94;5070132;28;20094;-33
2021/09/30 03:05:08;;;;;;;3.90;0.93;;;;;;;12.84;73.66;102201.97;5069247;28;20269;-42
2021/09/30 03:07:38;;;;;;;8.27;1.08;;;;;;;12.85;74.11;102198.03;5066460;28;20132;-42
2021/09/30 03:10:09;;;;;;;8.80;1.30;;;;;;;12.87;74.04;102204.22;5070255;28;20048;-38
2021/09/30 03:12:38;;;;;;;5.85;0.88;;;;;;;12.86;74.02;102208.97;5069755;28;20151;-35
2021/09/30 03:15:14;;;;;;;9.02;1.45;;;;;;;12.87;74.14;102204.22;5069676;28;20044;-42
2021/09/30 03:17:48;;;;;;;4.32;0.90;;;;;;;12.86;73.83;102208.13;5070221;28;20045;-38
2021/09/30 03:20:39;;;;;;;7.95;1.10;;;;;;;12.86;73.89;102216.53;5070862;28;20045;-38
2021/09/30 03:23:09;;;;;;;9.77;1.08;;;;;;;12.81;73.28;102210.94;5066607;28;20087;-42
2021/09/30 03:25:39;;;;;;;7.60;1.00;;;;;;;12.80;72.58;102217.66;5070165;28;20048;-37
2021/09/30 03:28:07;;;;;;;5.28;0.90;;;;;;;12.79;72.86;102218.81;5068609;28;20155;-45
2021/09/30 03:30:37;;;;;;;18.15;1.58;;;;;;;12.82;73.56;102221.00;5070626;28;20052;-37
2021/09/30 03:33:10;;;;;;;10.98;1.48;;;;;;;12.80;73.89;102218.50;5069976;28;20052;-35
2021/09/30 03:35:45;;;;;;;7.55;1.10;;;;;;;12.80;74.06;102217.66;5069423;28;20048;-38
2021/09/30 03:38:14;;;;;;;4.05;0.95;;;;;;;12.79;73.77;102218.81;5070022;28;20048;-39
2021/09/30 03:40:43;;;;;;;6.97;0.90;;;;;;;12.79;73.22;102224.41;5054232;28;20516;-39
2021/09/30 03:43:11;;;;;;;4.53;0.95;;;;;;;12.74;72.01;102216.84;5069259;28;20457;-38
2021/09/30 03:45:40;;;;;;;5.95;0.75;;;;;;;12.72;71.32;102222.72;5068686;28;20481;-38
2021/09/30 03:48:15;;;;;;;6.15;0.82;;;;;;;12.72;71.20;102233.91;5069272;28;20072;-38
2021/09/30 03:50:49;;;;;;;8.05;1.27;;;;;;;12.74;71.71;102233.66;5069123;28;20481;-38
2021/09/30 03:53:18;;;;;;;9.90;1.00;;;;;;;12.75;72.17;102233.38;5068502;28;20044;-37
2021/09/30 04:01:23;;;;;;;7.43;1.10;;;;;;;12.76;73.33;102243.44;5053603;28;20047;-33
2021/09/30 04:03:51;;;;;;;4.78;0.98;;;;;;;12.76;72.48;102243.44;5068868;28;20075;-41
2021/09/30 04:06:19;;;;;;;6.07;0.80;;;;;;;12.76;71.50;102237.84;5070038;28;20052;-44
2021/09/30 04:08:47;;;;;;;5.78;0.98;;;;;;;12.73;71.18;102238.41;5069175;28;20101;-35
2021/09/30 04:11:17;;;;;;;7.57;1.23;;;;;;;12.71;71.04;102240.63;5068982;28;20080;-41
2021/09/30 04:13:47;;;;;;;10.02;1.30;;;;;;;12.69;70.63;102248.47;5068647;28;20481;-37
2021/09/30 04:16:16;;;;;;;5.88;1.20;;;;;;;12.68;71.01;102249.59;5070518;28;20490;-37
2021/09/30 04:18:44;;;;;;;5.85;1.00;;;;;;;12.69;71.25;102239.25;5068463;28;20045;-36
2021/09/30 04:21:13;;;;;;;5.45;1.05;;;;;;;12.70;70.90;102252.13;5068656;28;20055;-34
2021/09/30 04:23:41;;;;;;;5.97;1.13;;;;;;;12.71;70.84;102257.44;5069953;28;20460;-32
2021/09/30 04:26:09;;;;;;;5.25;1.00;;;;;;;12.71;70.15;102262.22;5072596;28;20090;-38
2021/09/30 04:28:38;;;;;;;7.70;2.05;;;;;;;12.71;70.53;102257.44;5071641;28;20048;-40
2021/09/30 04:31:07;;;;;;;7.25;1.35;;;;;;;12.71;71.33;102263.03;5072431;28;20048;-33
2021/09/30 04:33:48;;;;;;;10.43;1.25;;;;;;;12.71;71.32;102260.25;5072421;28;20041;-33
2021/09/30 04:36:16;;;;;;;8.68;1.42;;;;;;;12.74;70.99;102258.84;5073396;28;20040;-34
2021/09/30 04:38:45;;;;;;;5.55;1.27;;;;;;;12.75;70.81;102258.56;5072076;28;20148;-44
2021/09/30 04:41:14;;;;;;;7.20;1.23;;;;;;;12.75;70.31;102266.13;5071968;28;20052;-34
2021/09/30 04:43:45;;;;;;;8.23;1.63;;;;;;;12.75;69.80;102261.38;5068031;28;20044;-35
2021/09/30 04:46:13;;;;;;;9.18;1.50;;;;;;;12.73;69.97;102260.81;5068900;28;20056;-38
2021/09/30 04:48:51;;;;;;;10.80;1.30;;;;;;;12.71;70.53;102262.22;5068736;28;20068;-40
2021/09/30 04:51:19;;;;;;;8.52;1.33;;;;;;;12.71;70.88;102259.41;5071035;28;20085;-34
2021/09/30 04:53:47;;;;;;;6.75;1.23;;;;;;;12.71;71.16;102263.03;5069029;28;20068;-41
2021/09/30 04:56:15;;;;;;;8.98;1.30;;;;;;;12.69;70.64;102265.28;5070111;28;20047;-32
2021/09/30 04:58:49;;;;;;;8.32;1.30;;;;;;;12.68;70.30;102258.00;5071511;28;20412;-43
2021/09/30 05:01:18;;;;;;;6.90;1.35;;;;;;;12.69;69.69;102259.69;5072039;28;20045;-41
2021/09/30 05:03:50;;;;;;;4.45;0.93;;;;;;;12.68;69.53;102251.56;5071484;28;20044;-41
2021/09/30 05:06:18;;;;;;;9.57;1.75;;;;;;;12.65;68.46;102260.50;5072970;28;20063;-37
2021/09/30 05:08:48;;;;;;;9.38;1.48;;;;;;;12.65;68.21;102263.31;5071498;28;20467;-37
2021/09/30 05:11:18;;;;;;;7.00;1.42;;;;;;;12.66;68.41;102265.00;5071115;28;20448;-37
2021/09/30 05:13:46;;;;;;;8.75;1.35;;;;;;;12.66;68.60;102263.03;5071580;28;20052;-40
2021/09/30 05:16:19;;;;;;;11.15;1.50;;;;;;;12.65;68.47;102258.56;5071680;28;20076;-39
2021/09/30 05:19:10;;;;;;;8.10;1.27;;;;;;;12.62;68.93;102263.88;5067076;28;20417;-33
2021/09/30 05:21:38;;;;;;;6.70;1.50;;;;;;;12.63;69.64;102258.00;5071562;28;20048;-38
2021/09/30 05:24:06;;;;;;;6.90;1.23;;;;;;;12.67;70.14;102263.88;5070971;28;20056;-42
2021/09/30 05:26:34;;;;;;;13.35;1.92;;;;;;;12.70;70.95;102261.38;5071130;28;20048;-36
2021/09/30 05:29:02;;;;;;;7.80;1.40;;;;;;;12.73;70.83;102265.56;5053756;28;20488;-35
2021/09/30 05:31:32;;;;;;;9.02;1.40;;;;;;;12.74;70.60;102261.66;5070363;28;20080;-41
2021/09/30 05:34:26;;;;;;;8.93;1.40;;;;;;;12.71;71.10;102263.03;5055436;28;20131;-32
2021/09/30 05:36:54;;;;;;;7.38;1.10;;;;;;;12.71;71.06;102268.66;5070906;28;20098;-38
2021/09/30 05:39:22;;;;;;;7.97;1.27;;;;;;;12.71;70.94;102273.41;5059447;28;20493;-37
2021/09/30 05:41:53;;;;;;;9.73;1.40;;;;;;;12.69;70.54;102270.88;5070711;28;20489;-41
2021/09/30 05:44:24;;;;;;;7.87;1.10;;;;;;;12.68;69.95;102276.75;5070865;28;20044;-38
2021/09/30 05:46:55;;;;;;;5.55;1.20;;;;;;;12.67;69.37;102283.47;5069706;28;20360;-37
2021/09/30 05:49:24;;;;;;;6.45;1.00;;;;;;;12.67;69.25;102275.91;5072424;28;20044;-39
2021/09/30 05:52:14;;;;;;;8.45;1.00;;;;;;;12.66;69.08;102274.25;5070833;28;20063;-36
2021/09/30 05:54:54;;;;;;;5.90;0.88;;;;;;;12.64;68.65;102270.03;5053478;28;20161;-43
2021/09/30 05:57:29;;;;;;;8.98;1.20;;;;;;;12.62;68.17;102281.50;5070749;28;20490;-34
2021/09/30 06:00:03;;;;;;;5.03;0.88;;;;;;;12.63;68.21;102286.00;5069175;28;20101;-35
2021/09/30 06:10:58;;;;;;;7.05;1.33;;;;;;;12.71;70.81;102313.47;5069583;28;20135;-38
2021/09/30 06:13:31;;;;;;;4.65;0.90;;;;;;;12.69;70.95;102304.50;5070163;28;20508;-42
2021/09/30 06:16:04;;;;;;;9.07;1.08;;;;;;;12.65;70.10;102314.56;5070886;28;20068;-40
2021/09/30 06:18:33;;;;;;;4.90;0.90;;;;;;;12.64;70.68;102304.47;5070739;28;20078;-39
2021/09/30 06:21:03;;;;;;;6.65;1.15;;;;;;;12.65;70.27;102303.38;5069033;28;20442;-37
2021/09/30 06:23:31;;;;;;;5.38;1.20;;;;;;;12.65;70.40;102303.38;5070540;28;20058;-39
2021/09/30 06:26:00;;;;;;;4.57;0.88;;;;;;;12.68;69.80;102299.16;5069026;28;20052;-41
2021/09/30 06:28:31;;;;;;;6.93;0.98;;;;;;;12.70;69.67;102306.19;5068853;28;20090;-42
2021/09/30 06:31:05;;;;;;;6.88;1.20;;;;;;;12.72;70.00;102297.50;5068326;28;20049;-39
2021/09/30 06:34:10;;;;;;;5.55;0.73;;;;;;;12.74;70.56;102300.88;5044391;28;20086;-36
2021/09/30 06:36:44;;;;;;;5.90;1.13;;;;;;;12.79;71.10;102298.03;5052259;28;20049;-38
2021/09/30 06:39:12;;;;;;;7.32;1.20;;;;;;;12.86;71.97;102292.19;5066549;28;20524;-38
2021/09/30 06:41:45;;;;;;;7.70;1.10;;;;;;;12.88;72.70;102295.53;5068582;28;20044;-36
2021/09/30 06:44:36;;;;;;;5.45;0.93;;;;;;;12.85;73.37;102301.69;5070560;28;20070;-36
2021/09/30 06:47:22;;;;;;;6.88;1.00;;;;;;;12.79;74.21;102302.84;5069820;28;20169;-42
2021/09/30 06:49:54;;;;;;;6.40;1.30;;;;;;;12.75;73.54;102311.78;5067930;28;20136;-36
2021/09/30 06:53:04;;;;;;;8.18;1.38;;;;;;;12.74;73.14;102312.06;5069960;28;20567;-41
2021/09/30 06:55:50;;;;;;;8.82;1.38;;;;;;;12.79;72.69;102308.44;5068791;28;20052;-34
2021/09/30 06:58:42;;;;;;;8.55;1.23;;;;;;;12.82;71.82;102314.31;5070544;28;20056;-41
2021/09/30 07:01:29;;;;;;;7.10;1.42;;;;;;;12.93;71.74;102312.38;5067344;28;20123;-40
2021/09/30 07:04:16;;;;;;;9.68;1.23;;;;;;;13.10;71.44;102315.72;5068926;28;20274;-35
2021/09/30 07:07:05;;;;;;;8.95;1.38;;;;;;;13.24;71.16;102319.66;5069194;28;20080;-38
2021/09/30 07:09:33;;;;;;;6.50;0.90;;;;;;;13.30;69.36;102318.53;5066863;28;20068;-39
2021/09/30 07:12:03;;;;;;;8.75;1.23;;;;;;;13.36;68.47;102328.63;5070378;28;20048;-36
2021/09/30 07:14:31;;;;;;;7.15;1.30;;;;;;;13.40;68.04;102326.94;5069820;28;20079;-42
2021/09/30 07:17:03;;;;;;;4.20;0.98;;;;;;;13.38;67.72;102328.34;5069319;28;20068;-40
2021/09/30 07:19:33;;;;;;;5.57;1.10;;;;;;;13.33;67.38;102331.16;5069543;28;20056;-36
2021/09/30 07:22:03;;;;;;;7.03;0.90;;;;;;;13.32;67.31;102329.47;5070063;28;20054;-42
2021/09/30 07:24:31;;;;;;;8.10;1.15;;;;;;;13.43;67.55;102333.94;5068214;28;20075;-35
2021/09/30 07:27:00;;;;;;;6.30;1.08;;;;;;;13.71;67.17;102332.50;5070634;28;20040;-42
2021/09/30 07:29:28;;;;;;;6.85;1.05;;;;;;;14.02;65.84;102331.25;5069030;28;20114;-40
2021/09/30 07:31:55;;;;;;;5.32;0.80;;;;;;;14.30;64.88;102342.94;5069145;28;20131;-39
2021/09/30 07:34:23;;;;;;;8.15;1.10;;;;;;;14.60;64.72;102331.56;5069476;28;20045;-42
2021/09/30 07:36:51;;;;;;;7.88;1.55;;;;;;;14.94;63.35;102330.78;5070202;28;20058;-35
2021/09/30 07:39:21;;;;;;;8.30;0.90;;;;;;;15.19;61.81;102346.63;5069612;28;20147;-37
2021/09/30 07:41:50;;;;;;;5.63;0.90;;;;;;;15.41;61.15;102336.53;5070633;28;20044;-42
2021/09/30 07:44:19;;;;;;;4.32;0.80;;;;;;;15.74;60.78;102326.41;5070248;28;20124;-42
2021/09/30 07:46:48;;;;;;;5.00;1.15;;;;;;;16.13;59.69;102345.09;5070589;28;20052;-42
2021/09/30 07:49:16;;;;;;;4.40;0.75;;;;;;;16.46;58.54;102340.41;5070389;28;20713;-46
2021/09/30 07:51:44;;;;;;;7.90;1.00;;;;;;;16.67;57.53;102333.38;5069855;28;20109;-38
2021/09/30 07:54:14;;;;;;;5.30;0.75;;;;;;;16.74;56.35;102330.19;5070419;28;20098;-35
2021/09/30 07:56:43;;;;;;;5.82;0.98;;;;;;;16.87;56.15;102329.41;5070394;28;20048;-36
2021/09/30 07:59:11;;;;;;;5.00;1.25;;;;;;;17.13;55.92;102329.84;5072450;28;20052;-38
2021/09/30 08:01:39;;;;;;;4.82;0.93;;;;;;;17.24;55.90;102334.16;5074015;28;20095;-40
2021/09/30 08:04:07;;;;;;;5.68;0.90;;;;;;;17.23;55.69;102329.66;5074027;28;20044;-40
2021/09/30 08:06:38;;;;;;;5.15;1.00;;;;;;;16.94;55.50;102329.03;5072601;28;20401;-39
2021/09/30 08:09:06;;;;;;;7.80;1.00;;;;;;;16.61;56.49;102328.91;5073195;28;20497;-43
2021/09/30 08:11:34;;;;;;;6.05;1.00;;;;;;;16.34;56.91;102323.13;5071982;28;20143;-37
2021/09/30 08:14:04;;;;;;;4.65;0.70;;;;;;;16.27;56.80;102339.53;5072710;28;20052;-39
2021/09/30 08:16:32;;;;;;;7.38;1.10;;;;;;;16.11;56.09;102342.56;5072663;28;20059;-35
2021/09/30 08:19:01;;;;;;;3.55;0.90;;;;;;;15.98;55.86;102332.03;5073417;28;20048;-38
2021/09/30 08:21:29;;;;;;;8.00;1.13;;;;;;;16.04;56.78;102328.00;5073026;28;20040;-40
2021/09/30 08:23:57;;;;;;;4.95;0.93;;;;;;;16.27;56.04;102331.09;5073992;28;20088;-38
2021/09/30 08:26:25;;;;;;;3.28;0.52;;;;;;;16.27;55.57;102333.91;5073633;28;20064;-32
2021/09/30 08:28:54;;;;;;;4.50;1.00;;;;;;;16.13;54.88;102331.84;5073184;28;20048;-41
2021/09/30 08:31:24;;;;;;;2.95;0.63;;;;;;;16.04;54.93;102335.59;5073550;28;20051;-38
2021/09/30 08:33:54;;;;;;;5.78;0.90;;;;;;;15.96;55.38;102334.31;5065495;28;20473;-42
2021/09/30 08:36:22;;;;;;;4.78;0.90;;;;;;;15.95;55.18;102334.59;5073277;28;20098;-39
2021/09/30 08:38:49;;;;;;;5.10;0.75;;;;;;;16.01;55.21;102331.41;5074024;28;20040;-35
2021/09/30 08:41:20;;;;;;;5.53;1.05;;;;;;;16.15;54.69;102345.63;5072678;28;20045;-37
2021/09/30 08:43:49;;;;;;;6.32;1.10;;;;;;;16.33;54.02;102347.66;5070633;28;20048;-38
2021/09/30 08:46:17;;;;;;;6.18;1.00;;;;;;;16.46;53.99;102343.22;5073428;28;20074;-39
2021/09/30 08:48:47;;;;;;;2.45;0.60;;;;;;;16.67;53.71;102347.47;5072931;28;20048;-42
2021/09/30 08:51:15;;;;;;;5.00;1.00;;;;;;;16.94;53.67;102343.97;5073074;28;20060;-39
2021/09/30 08:53:44;;;;;;;4.20;0.80;;;;;;;17.10;52.68;102341.72;5072875;28;20409;-37
2021/09/30 08:56:12;;;;;;;6.10;0.85;;;;;;;17.13;52.15;102341.13;5072836;28;20036;-42
2021/09/30 08:58:40;;;;;;;5.90;0.90;;;;;;;17.25;52.07;102335.00;5073237;28;20044;-42
2021/09/30 09:01:11;;;;;;;5.93;1.25;;;;;;;17.34;51.41;102331.16;5073285;28;20102;-41
2021/09/30 09:03:40;;;;;;;4.30;0.80;;;;;;;17.17;51.82;102330.91;5072496;28;20049;-40
2021/09/30 09:06:27;;;;;;;5.60;0.82;;;;;;;17.10;52.14;102330.44;5073211;28;20046;-40
2021/09/30 09:09:14;;;;;;;5.40;0.90;;;;;;;17.35;52.52;102329.19;5070781;28;20531;-38
2021/09/30 09:11:42;;;;;;;5.80;0.90;;;;;;;17.42;50.82;102329.59;5057547;28;20056;-37
2021/09/30 09:14:10;;;;;;;8.05;0.80;;;;;;;17.39;51.40;102327.41;5072870;28;20094;-39
2021/09/30 09:16:39;;;;;;;5.97;0.80;;;;;;;17.41;51.68;102325.09;5072066;28;20520;-34
2021/09/30 09:19:06;;;;;;;4.22;0.90;;;;;;;17.16;51.61;102329.22;5073045;28;20540;-36
2021/09/30 09:21:38;;;;;;;5.15;1.05;;;;;;;16.95;52.42;102325.06;5072866;28;20466;-36
2021/09/30 09:24:06;;;;;;;5.07;1.00;;;;;;;16.76;52.41;102316.63;5072179;28;20098;-35
2021/09/30 09:26:37;;;;;;;4.72;0.70;;;;;;;16.59;53.07;102319.09;5072510;28;20414;-40
2021/09/30 09:29:06;;;;;;;6.57;1.30;;;;;;;16.45;53.86;102310.56;5072393;28;20473;-43
2021/09/30 09:31:37;;;;;;;2.97;0.75;;;;;;;16.36;53.67;102323.66;5071990;28;20055;-38
2021/09/30 09:34:19;;;;;;;4.90;0.80;;;;;;;16.35;52.89;102327.63;5072474;28;20044;-35
2021/09/30 09:36:50;;;;;;;4.38;0.93;;;;;;;16.26;53.04;102320.97;5072521;28;20338;-40
2021/09/30 09:39:31;;;;;;;4.05;0.85;;;;;;;16.24;53.85;102332.53;5071924;28;20047;-34
2021/09/30 09:42:06;;;;;;;5.75;0.77;;;;;;;16.19;54.28;102322.16;5072558;28;20135;-36
2021/09/30 09:44:50;;;;;;;6.25;0.80;;;;;;;16.22;52.19;102314.25;5071324;28;20045;-37
2021/09/30 09:47:22;;;;;;;7.40;1.00;;;;;;;16.32;52.83;102309.34;5072575;28;20072;-36
2021/09/30 09:50:12;;;;;;;5.50;0.80;;;;;;;16.71;53.35;102306.25;5070747;28;20045;-35
2021/09/30 09:52:48;;;;;;;5.00;0.90;;;;;;;16.87;52.45;102307.69;5071793;28;20090;-38
2021/09/30 09:55:28;;;;;;;5.55;0.80;;;;;;;17.00;52.98;102303.25;5070490;28;20489;-35
2021/09/30 09:58:04;;;;;;;7.78;1.05;;;;;;;17.20;50.93;102296.41;5072034;28;20421;-33
2021/09/30 10:00:35;;;;;;;7.00;0.93;;;;;;;17.09;51.66;102306.22;5071742;28;20167;-34
2021/09/30 10:03:17;;;;;;;7.05;1.30;;;;;;;17.13;50.36;102296.00;5072146;28;20098;-34
2021/09/30 10:05:47;;;;;;;7.57;1.10;;;;;;;17.12;51.63;102294.31;5069829;28;20044;-34
2021/09/30 10:08:16;;;;;;;3.30;0.57;;;;;;;17.23;51.35;102298.63;5071963;28;20052;-33
2021/09/30 10:10:46;;;;;;;5.38;0.90;;;;;;;17.43;52.13;102295.44;5068207;28;20057;-35
2021/09/30 10:13:15;;;;;;;5.72;1.35;;;;;;;17.73;52.35;102294.06;5071488;28;20398;-39
2021/09/30 10:15:46;;;;;;;4.10;0.80;;;;;;;17.92;52.18;102299.59;5071530;28;20071;-42
2021/09/30 10:18:14;;;;;;;7.20;1.40;;;;;;;18.00;52.50;102293.19;5071804;28;20118;-33
2021/09/30 10:20:43;;;;;;;5.75;0.82;;;;;;;18.06;51.70;102291.94;5069991;28;20480;-40
2021/09/30 10:23:12;;;;;;;4.40;1.00;;;;;;;18.14;50.55;102296.88;5071547;28;20106;-33
2021/09/30 10:25:44;;;;;;;4.72;0.80;;;;;;;18.25;50.31;102303.13;5071243;28;20434;-37
2021/09/30 10:28:13;;;;;;;5.13;0.90;;;;;;;18.13;49.02;102297.19;5071107;28;20049;-34
2021/09/30 10:30:43;;;;;;;8.23;0.95;;;;;;;18.07;49.52;102304.91;5071334;28;20054;-33
2021/09/30 10:33:12;;;;;;;4.68;1.02;;;;;;;18.09;49.92;102299.78;5070862;28;20052;-34
2021/09/30 10:35:42;;;;;;;4.60;0.80;;;;;;;18.19;49.64;102310.03;5070964;28;20076;-36
2021/09/30 10:38:18;;;;;;;2.95;0.60;;;;;;;18.26;47.35;102293.50;5071280;28;20147;-38
2021/09/30 10:41:09;;;;;;;4.55;0.63;;;;;;;18.08;46.26;102288.81;5070559;28;20154;-37
2021/09/30 10:43:42;;;;;;;3.40;0.75;;;;;;;17.81;49.20;102287.66;5071414;28;20049;-41
2021/09/30 10:46:45;;;;;;;5.38;0.98;;;;;;;17.62;49.57;102297.34;5070705;28;20044;-35
2021/09/30 10:49:33;;;;;;;;;;;;;;;17.56;52.20;102277.69;5071224;28;20055;-37
2021/09/30 10:52:15;;;;;;;3.47;0.80;;;;;;;17.89;52.77;102289.75;5070668;28;20019;-36
2021/09/30 10:54:48;;;;;;;6.55;0.98;;;;;;;17.89;52.24;102275.63;5070331;28;20048;-42
2021/09/30 10:57:37;;;;;;;6.25;1.02;;;;;;;17.63;51.79;102284.91;5067943;28;20051;-37
2021/09/30 11:00:07;;;;;;;6.43;1.00;;;;;;;17.29;53.52;102277.63;5053812;28;20142;-44
2021/09/30 11:03:12;;;;;;;6.18;0.90;;;;;;;17.17;54.79;102266.88;5067574;28;20048;-38
2021/09/30 11:05:43;;;;;;;7.32;1.05;;;;;;;16.93;54.69;102270.97;5069758;28;20539;-35
2021/09/30 11:08:22;;;;;;;3.85;1.15;;;;;;;16.76;54.88;102257.44;5070880;28;20493;-38
2021/09/30 11:11:11;;;;;;;6.95;1.13;;;;;;;16.66;54.85;102249.13;5070653;28;20048;-35
2021/09/30 11:13:42;;;;;;;7.82;1.17;;;;;;;16.63;55.43;102252.50;5070286;28;20049;-33
2021/09/30 11:16:13;;;;;;;7.90;1.25;;;;;;;16.70;56.50;102258.66;5070334;28;20445;-36
2021/09/30 11:18:49;;;;;;;5.70;0.77;;;;;;;16.66;55.75;102252.78;5069793;28;20078;-35
2021/09/30 11:21:43;;;;;;;6.32;1.00;;;;;;;16.57;53.30;102257.41;5070763;28;20049;-38
2021/09/30 11:24:22;;;;;;;4.25;0.80;;;;;;;16.44;55.23;102249.72;5067358;28;20569;-35
2021/09/30 11:27:21;;;;;;;6.43;1.02;;;;;;;16.26;57.99;102253.38;5070573;28;20037;-39
2021/09/30 11:29:51;;;;;;;6.28;1.00;;;;;;;16.09;59.62;102257.53;5058874;28;20057;-37
2021/09/30 11:32:27;;;;;;;8.82;1.45;;;;;;;15.95;61.62;102245.34;5070132;28;20052;-37
2021/09/30 11:35:01;;;;;;;7.20;1.40;;;;;;;15.86;62.96;102244.34;5063663;28;20432;-38
2021/09/30 11:37:35;;;;;;;4.30;0.93;;;;;;;15.77;62.57;102243.34;5074080;28;20087;-36
2021/09/30 11:40:10;;;;;;;4.30;1.05;;;;;;;15.72;62.60;102255.50;5064668;28;20055;-36
2021/09/30 11:42:40;;;;;;;7.80;1.63;;;;;;;15.64;63.79;102264.59;5074314;28;20075;-37
2021/09/30 11:45:14;;;;;;;8.50;1.38;;;;;;;15.44;66.92;102243.13;5074349;28;20068;-35
2021/09/30 11:47:44;;;;;;;7.38;1.10;;;;;;;15.33;66.47;102257.59;5074458;28;20036;-35
2021/09/30 11:50:21;;;;;;;5.72;0.98;;;;;;;15.32;65.89;102256.75;5074647;28;20056;-35
2021/09/30 11:52:58;;;;;;;7.15;1.10;;;;;;;15.29;66.06;102251.72;5073561;28;20052;-34
2021/09/30 11:55:28;;;;;;;3.17;0.70;;;;;;;15.18;65.14;102261.41;5074818;28;20060;-38
2021/09/30 11:58:00;;;;;;;5.55;0.80;;;;;;;15.14;64.19;102249.06;5073576;28;20048;-36
2021/09/30 12:00:29;;;;;;;4.20;0.77;;;;;;;15.13;63.91;102250.22;5074530;28;20044;-36
2021/09/30 12:03:17;;;;;;;6.90;0.85;;;;;;;15.10;64.67;102251.63;5073987;28;20357;-33
2021/09/30 12:05:45;;;;;;;4.68;0.85;;;;;;;15.09;65.10;102238.72;5073737;28;20048;-39
2021/09/30 12:08:15;;;;;;;7.82;1.23;;;;;;;15.12;65.67;102240.94;5073934;28;20048;-38
2021/09/30 12:10:44;;;;;;;5.55;0.93;;;;;;;15.10;66.64;102239.53;5070884;28;20048;-38
2021/09/30 12:13:17;;;;;;;3.83;0.80;;;;;;;15.08;66.73;102244.63;5073074;28;20080;-35
2021/09/30 12:15:48;;;;;;;6.10;0.82;;;;;;;15.03;67.53;102242.69;5073294;28;20044;-38
2021/09/30 12:18:21;;;;;;;7.75;0.88;;;;;;;15.08;67.60;102236.19;5073879;28;20046;-36
2021/09/30 12:20:56;;;;;;;7.75;1.20;;;;;;;15.21;67.87;102229.03;5072502;28;20044;-38
2021/09/30 12:23:26;;;;;;;4.05;0.75;;;;;;;15.25;67.81;102225.31;5073717;28;20076;-37
2021/09/30 12:25:54;;;;;;;6.50;0.90;;;;;;;15.31;67.87;102212.88;5073090;28;20408;-36
2021/09/30 12:28:23;;;;;;;6.45;0.90;;;;;;;15.39;67.92;102217.00;5073573;28;20135;-39
2021/09/30 12:30:52;;;;;;;6.85;0.98;;;;;;;15.38;67.29;102210.56;5073796;28;20052;-42
2021/09/30 12:33:21;;;;;;;5.78;1.00;;;;;;;15.37;67.18;102208.06;5073319;28;20044;-38
2021/09/30 12:35:49;;;;;;;3.80;0.80;;;;;;;15.35;67.49;102197.09;5072413;28;20044;-39
2021/09/30 12:38:19;;;;;;;5.85;0.90;;;;;;;15.31;67.74;102198.81;5073406;28;20143;-39
2021/09/30 12:40:49;;;;;;;9.50;1.00;;;;;;;15.16;68.71;102205.47;5072813;28;20118;-39
2021/09/30 12:43:19;;;;;;;5.10;0.82;;;;;;;15.03;69.58;102194.91;5073094;28;20139;-39
2021/09/30 12:45:57;;;;;;;8.57;1.48;;;;;;;14.94;70.23;102195.84;5073196;28;20058;-38
2021/09/30 12:48:29;;;;;;;6.13;1.50;;;;;;;14.85;70.57;102184.41;5073064;28;20131;-37
2021/09/30 12:50:59;;;;;;;9.10;1.33;;;;;;;14.83;70.17;102181.88;5071587;28;20048;-35
2021/09/30 12:53:29;;;;;;;8.63;1.30;;;;;;;14.78;69.73;102178.31;5073391;28;20451;-37
2021/09/30 12:56:05;;;;;;;4.43;0.80;;;;;;;14.75;69.50;102185.34;5072473;28;20074;-40
2021/09/30 12:58:34;;;;;;;5.10;1.05;;;;;;;14.76;69.47;102163.72;5073182;28;20494;-35
2021/09/30 13:01:28;;;;;;;5.72;1.02;;;;;;;14.81;68.28;102160.84;5072480;28;20412;-38
2021/09/30 13:04:08;;;;;;;7.80;1.50;;;;;;;14.88;68.64;102154.88;5072807;28;20063;-40
2021/09/30 13:06:38;;;;;;;5.97;1.00;;;;;;;14.93;67.64;102161.28;5070221;28;20049;-40
2021/09/30 13:09:06;;;;;;;6.55;1.20;;;;;;;14.92;67.42;102150.34;5072306;28;20555;-36
2021/09/30 13:11:36;;;;;;;8.13;1.30;;;;;;;14.94;67.43;102156.50;5071700;28;20082;-32
2021/09/30 13:14:27;;;;;;;6.35;1.08;;;;;;;14.89;66.72;102168.63;5072936;28;20060;-41
2021/09/30 13:16:58;;;;;;;6.30;1.27;;;;;;;14.82;67.06;102152.09;5068940;28;20076;-36
2021/09/30 13:19:45;;;;;;;8.57;1.23;;;;;;;14.77;67.32;102146.56;5073110;28;20365;-40
2021/09/30 13:22:15;;;;;;;8.23;1.10;;;;;;;14.72;67.53;102135.38;5071940;28;20052;-35
2021/09/30 13:24:44;;;;;;;6.82;1.25;;;;;;;14.75;67.68;102131.97;5072574;28;20072;-38
2021/09/30 13:27:14;;;;;;;5.82;1.17;;;;;;;14.78;67.22;102122.94;5072589;28;20074;-38
2021/09/30 13:29:44;;;;;;;7.88;1.13;;;;;;;14.81;66.82;102130.75;5072461;28;20055;-35
2021/09/30 13:32:13;;;;;;;6.90;0.98;;;;;;;14.87;66.60;102125.94;5072087;28;20053;-34
2021/09/30 13:34:41;;;;;;;6.90;1.00;;;;;;;14.90;65.96;102116.91;5072763;28;20478;-33
2021/09/30 13:37:10;;;;;;;4.90;0.98;;;;;;;14.95;65.49;102118.84;5071349;28;20056;-40
2021/09/30 13:39:38;;;;;;;6.65;1.33;;;;;;;14.96;65.27;102118.53;5072792;28;20076;-40
2021/09/30 13:42:07;;;;;;;5.88;1.10;;;;;;;14.99;65.24;102100.22;5072173;28;20147;-44
2021/09/30 13:44:35;;;;;;;5.38;0.90;;;;;;;14.96;64.40;102103.66;5072045;28;20182;-43
2021/09/30 13:47:05;;;;;;;4.53;0.85;;;;;;;14.98;64.14;102107.84;5071905;28;20070;-43
2021/09/30 13:49:33;;;;;;;8.98;1.45;;;;;;;14.99;64.94;102097.41;5072231;28;20072;-37
2021/09/30 13:52:00;;;;;;;6.25;1.10;;;;;;;14.96;65.00;102089.59;5071345;28;20048;-37
2021/09/30 13:54:30;;;;;;;6.15;0.98;;;;;;;14.93;65.83;102090.19;5072308;28;20048;-42
2021/09/30 13:56:57;;;;;;;10.48;1.80;;;;;;;14.86;67.15;102096.16;5070405;28;20135;-38
2021/09/30 13:59:25;;;;;;;9.20;1.48;;;;;;;14.79;67.92;102085.25;5070639;28;20040;-40
2021/09/30 14:02:13;;;;;;;6.45;1.23;;;;;;;14.68;69.19;102080.88;5070796;28;20048;-36
2021/09/30 14:04:41;;;;;;;7.70;1.33;;;;;;;14.61;69.62;102073.94;5070405;28;20587;-37
2021/09/30 14:07:10;;;;;;;9.07;1.35;;;;;;;14.57;69.81;102072.88;5070747;28;20702;-39
2021/09/30 14:09:39;;;;;;;10.43;2.05;;;;;;;14.56;69.58;102077.66;5067314;28;20498;-41
2021/09/30 14:12:08;;;;;;;6.57;1.33;;;;;;;14.57;69.17;102072.88;5070393;28;20060;-37
2021/09/30 14:14:36;;;;;;;5.18;1.10;;;;;;;14.58;69.45;102064.16;5070634;28;20490;-33
2021/09/30 14:17:04;;;;;;;9.38;1.50;;;;;;;14.63;69.48;102069.69;5070307;28;20549;-39
2021/09/30 14:19:32;;;;;;;10.57;1.30;;;;;;;14.64;69.64;102062.94;5067990;28;20048;-41